createdAt,value
2023-10-30T00:00:54.363Z,99796.38
2023-10-30T00:03:21.611Z,99799.91
2023-10-30T00:05:49.970Z,99801.66
2023-10-30T00:08:17.993Z,99797.28
2023-10-30T00:10:44.931Z,99812.16
2023-10-30T00:13:12.151Z,99805.13
2023-10-30T00:15:39.225Z,99805.13
2023-10-30T00:18:06.231Z,99808.63
2023-10-30T00:20:36.661Z,99810.34
2023-10-30T00:23:04.051Z,99820.88
2023-10-30T00:25:30.986Z,99825.22
2023-10-30T00:28:01.119Z,99829.59
2023-10-30T00:30:28.611Z,99830.47
2023-10-30T00:32:55.811Z,99841.00
2023-10-30T00:35:23.003Z,99837.47
2023-10-30T00:37:50.126Z,99833.09
2023-10-30T00:40:17.153Z,99839.22
2023-10-30T00:42:44.114Z,99831.38
2023-10-30T00:45:11.493Z,99841.00
2023-10-30T00:47:39.840Z,99845.38
2023-10-30T00:50:08.958Z,99844.50
2023-10-30T00:52:36.072Z,99852.38
2023-10-30T00:55:03.175Z,99855.00
2023-10-30T00:57:30.155Z,99863.81
2023-10-30T00:59:57.124Z,99855.00
2023-10-30T01:02:24.162Z,99862.88
2023-10-30T01:04:51.665Z,99861.13
2023-10-30T01:07:18.703Z,99869.88
2023-10-30T01:09:45.656Z,99869.00
2023-10-30T01:12:13.593Z,99873.38
2023-10-30T01:14:41.530Z,99871.59
2023-10-30T01:17:09.195Z,99877.75
2023-10-30T01:19:36.674Z,99880.38
2023-10-30T01:22:03.696Z,99885.63
2023-10-30T01:24:31.915Z,99889.09
2023-10-30T01:26:58.923Z,99887.38
2023-10-30T01:29:26.080Z,99884.72
2023-10-30T01:31:53.024Z,99883.88
2023-10-30T01:34:20.054Z,99885.59
2023-10-30T01:36:47.053Z,99886.50
2023-10-30T01:39:14.138Z,99891.75
2023-10-30T01:41:44.998Z,99896.13
2023-10-30T01:44:11.899Z,99897.00
2023-10-30T01:46:38.898Z,99901.38
2023-10-30T01:49:06.132Z,99896.09
2023-10-30T01:51:33.331Z,99902.25
2023-10-30T01:54:00.587Z,99897.00
2023-10-30T01:56:28.395Z,99900.50
2023-10-30T01:58:55.644Z,99904.88
2023-10-30T02:01:24.088Z,99906.63
2023-10-30T02:03:53.510Z,99911.84
2023-10-30T02:06:20.528Z,99915.38
2023-10-30T02:08:47.875Z,99912.75
2023-10-30T02:11:14.810Z,99909.22
2023-10-30T02:13:41.739Z,99906.63
2023-10-30T02:16:08.662Z,99904.00
2023-10-30T02:18:35.755Z,99903.16
2023-10-30T02:21:02.793Z,99903.13
2023-10-30T02:23:29.705Z,99904.03
2023-10-30T02:25:56.738Z,99910.16
2023-10-30T02:28:24.209Z,99911.00
2023-10-30T02:30:51.148Z,99907.50
2023-10-30T02:33:18.111Z,99900.50
2023-10-30T02:35:45.094Z,99897.91
2023-10-30T02:38:12.004Z,99902.25
2023-10-30T02:40:38.986Z,99904.88
2023-10-30T02:43:05.913Z,99912.78
2023-10-30T02:45:32.914Z,99912.78
2023-10-30T02:47:59.881Z,99910.16
2023-10-30T02:50:26.822Z,99909.25
2023-10-30T02:52:53.790Z,99913.63
2023-10-30T02:55:20.729Z,99912.75
2023-10-30T02:57:47.645Z,99919.72
2023-10-30T03:00:14.775Z,99918.00
2023-10-30T03:02:41.871Z,99925.84
2023-10-30T03:05:09.615Z,99920.59
2023-10-30T03:07:36.716Z,99926.72
2023-10-30T03:10:03.767Z,99932.81
2023-10-30T03:12:30.706Z,99923.19
2023-10-30T03:14:57.695Z,99937.16
2023-10-30T03:17:24.649Z,99930.16
2023-10-30T03:19:51.620Z,99935.41
2023-10-30T03:22:18.580Z,99934.53
2023-10-30T03:24:45.950Z,99917.00
2023-10-30T03:27:13.075Z,99920.53
2023-10-30T03:29:40.697Z,99914.34
2023-10-30T03:32:07.668Z,99911.75
2023-10-30T03:34:36.509Z,99910.81
2023-10-30T03:37:03.616Z,99913.44
2023-10-30T03:39:30.606Z,99916.09
2023-10-30T03:41:57.618Z,99907.25
2023-10-30T03:44:27.291Z,99922.13
2023-10-30T03:46:54.522Z,99925.59
2023-10-30T03:49:22.240Z,99929.94
2023-10-30T03:51:52.321Z,99925.56
2023-10-30T03:54:20.371Z,99932.56
2023-10-30T03:56:47.292Z,99922.91
2023-10-30T03:59:14.233Z,99914.03
2023-10-30T04:01:41.245Z,99908.84
2023-10-30T04:04:09.106Z,99919.28
2023-10-30T04:06:39.860Z,99921.00
2023-10-30T04:09:07.342Z,99928.84
2023-10-30T04:11:34.592Z,99918.34
2023-10-30T04:14:01.525Z,99929.72
2023-10-30T04:16:29.945Z,99933.22
2023-10-30T04:18:57.004Z,99941.91
2023-10-30T04:21:23.981Z,99944.53
2023-10-30T04:23:51.060Z,99939.22
2023-10-30T04:26:18.876Z,99936.63
2023-10-30T04:28:45.868Z,99943.63
2023-10-30T04:31:12.815Z,99944.53
2023-10-30T04:33:40.463Z,99941.91
2023-10-30T04:36:08.070Z,99939.25
2023-10-30T04:38:36.729Z,99937.53
2023-10-30T04:41:05.572Z,99946.31
2023-10-30T04:43:33.993Z,99940.19
2023-10-30T04:46:01.114Z,99944.53
2023-10-30T04:48:31.339Z,99937.56
2023-10-30T04:50:59.012Z,99932.34
2023-10-30T04:53:26.411Z,99941.06
2023-10-30T04:56:03.422Z,99939.31
2023-10-30T04:58:30.720Z,99939.34
2023-10-30T05:00:57.665Z,99934.97
2023-10-30T05:03:24.690Z,99940.22
2023-10-30T05:05:51.703Z,99935.84
2023-10-30T05:08:21.285Z,99929.75
2023-10-30T05:10:48.350Z,99912.25
2023-10-30T05:13:15.633Z,99921.88
2023-10-30T05:15:42.625Z,99917.47
2023-10-30T05:18:09.565Z,99921.00
2023-10-30T05:20:36.542Z,99922.75
2023-10-30T05:23:03.485Z,99921.88
2023-10-30T05:25:41.914Z,99921.88
2023-10-30T05:28:09.948Z,99916.63
2023-10-30T05:30:37.363Z,99907.00
2023-10-30T05:33:07.133Z,99896.53
2023-10-30T05:35:41.835Z,99899.16
2023-10-30T05:38:08.951Z,99899.16
2023-10-30T05:40:35.931Z,99904.38
2023-10-30T05:43:03.153Z,99908.84
2023-10-30T05:45:30.101Z,99902.66
2023-10-30T05:47:57.185Z,99915.75
2023-10-30T05:50:24.285Z,99909.66
2023-10-30T05:52:51.201Z,99905.34
2023-10-30T05:55:18.311Z,99907.97
2023-10-30T05:57:46.444Z,99913.19
2023-10-30T06:00:15.457Z,99914.97
2023-10-30T06:02:43.337Z,99924.50
2023-10-30T06:05:14.687Z,99921.00
2023-10-30T06:07:43.584Z,99916.72
2023-10-30T06:10:12.153Z,99934.09
2023-10-30T06:12:40.090Z,99924.59
2023-10-30T06:15:08.683Z,99924.59
2023-10-30T06:17:36.437Z,99936.72
2023-10-30T06:20:07.403Z,99942.84
2023-10-30T06:22:34.394Z,99942.81
2023-10-30T06:25:01.820Z,99951.56
2023-10-30T06:27:29.320Z,99946.34
2023-10-30T06:29:56.540Z,99935.00
2023-10-30T06:32:23.485Z,99937.63
2023-10-30T06:34:50.601Z,99942.88
2023-10-30T06:37:17.684Z,99946.44
2023-10-30T06:39:44.730Z,99937.63
2023-10-30T06:42:13.084Z,99934.97
2023-10-30T06:44:40.093Z,99937.59
2023-10-30T06:47:07.189Z,99951.59
2023-10-30T06:49:34.378Z,99949.69
2023-10-30T06:52:01.694Z,99952.88
2023-10-30T06:54:29.104Z,99950.84
2023-10-30T06:56:56.085Z,99939.97
2023-10-30T06:59:23.047Z,99931.81
2023-10-30T07:01:50.087Z,99910.47
2023-10-30T07:04:17.598Z,99915.53
2023-10-30T07:06:46.192Z,99926.00
2023-10-30T07:09:13.849Z,99924.09
2023-10-30T07:11:41.813Z,99923.06
2023-10-30T07:14:09.492Z,99937.16
2023-10-30T07:16:43.214Z,99939.72
2023-10-30T07:19:17.067Z,99953.81
2023-10-30T07:21:46.629Z,99946.69
2023-10-30T07:24:13.901Z,99956.41
2023-10-30T07:26:40.939Z,99944.84
2023-10-30T07:29:08.684Z,99946.59
2023-10-30T07:31:35.707Z,99953.66
2023-10-30T07:34:02.734Z,99956.19
2023-10-30T07:36:29.663Z,99957.09
2023-10-30T07:38:56.714Z,99951.78
2023-10-30T07:41:23.623Z,99945.56
2023-10-30T07:43:50.687Z,99941.16
2023-10-30T07:46:17.799Z,99944.69
2023-10-30T07:48:44.881Z,99944.69
2023-10-30T07:51:11.925Z,99947.31
2023-10-30T07:53:39.598Z,99949.97
2023-10-30T07:56:06.888Z,99943.81
2023-10-30T07:58:34.050Z,99945.50
2023-10-30T08:01:01.110Z,99960.41
2023-10-30T08:03:28.323Z,99948.91
2023-10-30T08:05:58.506Z,99954.19
2023-10-30T08:08:25.470Z,99955.16
2023-10-30T08:10:52.516Z,99965.81
2023-10-30T08:13:19.524Z,99963.09
2023-10-30T08:15:46.676Z,99963.97
2023-10-30T08:18:13.891Z,99952.50
2023-10-30T08:20:40.952Z,99959.50
2023-10-30T08:23:07.849Z,99955.06
2023-10-30T08:25:34.943Z,99961.25
2023-10-30T08:28:02.157Z,99955.91
2023-10-30T08:30:29.322Z,99945.25
2023-10-30T08:32:57.444Z,99956.75
2023-10-30T08:35:24.685Z,99947.91
2023-10-30T08:37:51.663Z,99963.75
2023-10-30T08:40:19.119Z,99966.41
2023-10-30T08:42:46.164Z,99962.84
2023-10-30T08:45:13.296Z,99968.19
2023-10-30T08:47:40.479Z,99974.31
2023-10-30T08:50:09.449Z,99970.78
2023-10-30T08:52:37.198Z,99964.63
2023-10-30T08:55:06.113Z,99955.88
2023-10-30T08:57:33.250Z,99969.06
2023-10-30T09:00:00.300Z,99958.44
2023-10-30T09:02:27.683Z,99961.06
2023-10-30T09:04:55.190Z,99948.69
2023-10-30T09:07:22.169Z,99954.91
2023-10-30T09:09:49.263Z,99957.50
2023-10-30T09:12:16.342Z,99956.56
2023-10-30T09:14:43.836Z,99956.56
2023-10-30T09:17:11.114Z,99964.56
2023-10-30T09:19:38.531Z,99965.41
2023-10-30T09:22:06.040Z,99961.91
2023-10-30T09:24:33.105Z,99959.28
2023-10-30T09:27:00.161Z,99959.25
2023-10-30T09:29:27.252Z,99960.97
2023-10-30T09:31:54.641Z,99962.75
2023-10-30T09:34:22.726Z,99960.13
2023-10-30T09:36:50.628Z,99963.63
2023-10-30T09:39:17.585Z,99955.69
2023-10-30T09:41:46.704Z,99958.38
2023-10-30T09:44:14.178Z,99958.31
2023-10-30T09:46:42.176Z,99952.16
2023-10-30T09:49:14.582Z,99939.78
2023-10-30T09:51:43.584Z,99932.75
2023-10-30T09:54:11.004Z,99931.81
2023-10-30T09:56:40.939Z,99937.09
2023-10-30T09:59:08.003Z,99935.34
2023-10-30T10:01:35.659Z,99932.66
2023-10-30T10:04:02.871Z,99924.72
2023-10-30T10:06:29.968Z,99923.94
2023-10-30T10:08:57.074Z,99917.72
2023-10-30T10:11:24.068Z,99919.47
2023-10-30T10:14:04.653Z,99919.44
2023-10-30T10:16:32.966Z,99926.44
2023-10-30T10:19:00.238Z,99933.53
2023-10-30T10:21:27.674Z,99926.50
2023-10-30T10:23:55.153Z,99933.59
2023-10-30T10:26:31.171Z,99925.72
2023-10-30T10:28:59.576Z,99925.66
2023-10-30T10:31:26.696Z,99920.41
2023-10-30T10:33:54.556Z,99923.84
2023-10-30T10:36:21.688Z,99922.09
2023-10-30T10:39:00.725Z,99917.78
2023-10-30T10:41:28.232Z,99924.84
2023-10-30T10:43:56.895Z,99925.72
2023-10-30T10:46:24.117Z,99923.00
2023-10-30T10:48:51.326Z,99929.16
2023-10-30T10:51:44.390Z,99922.97
2023-10-30T10:54:20.359Z,99913.25
2023-10-30T10:56:53.151Z,99913.25
2023-10-30T10:59:22.291Z,99903.59
2023-10-30T11:01:52.745Z,99906.16
2023-10-30T11:04:19.986Z,99901.72
2023-10-30T11:06:56.758Z,99903.47
2023-10-30T11:09:34.439Z,99899.97
2023-10-30T11:12:32.487Z,99898.19
2023-10-30T11:15:20.531Z,99884.03
2023-10-30T11:18:20.302Z,99882.25
2023-10-30T11:20:50.454Z,99875.19
2023-10-30T11:23:45.955Z,99876.06
2023-10-30T11:26:37.382Z,99859.25
2023-10-30T11:29:44.560Z,99862.81
2023-10-30T11:32:16.042Z,99860.16
2023-10-30T11:34:44.775Z,99851.34
2023-10-30T11:37:13.587Z,99861.00
2023-10-30T11:39:43.378Z,99857.44
2023-10-30T11:42:31.469Z,99856.59
2023-10-30T11:45:25.767Z,99849.50
2023-10-30T11:48:07.227Z,99844.22
2023-10-30T11:50:44.485Z,99845.09
2023-10-30T11:53:17.650Z,99837.19
2023-10-30T11:55:44.770Z,99834.47
2023-10-30T11:58:12.468Z,99830.97
2023-10-30T12:00:47.939Z,99824.81
2023-10-30T12:03:16.414Z,99823.88
2023-10-30T12:05:45.831Z,99823.88
2023-10-30T12:08:13.040Z,99823.00
2023-10-30T12:10:40.712Z,99819.47
2023-10-30T12:13:11.089Z,99802.69
2023-10-30T12:15:38.195Z,99798.28
2023-10-30T12:18:06.261Z,99798.28
2023-10-30T12:20:33.714Z,99792.06
2023-10-30T12:23:00.779Z,99784.19
2023-10-30T12:25:27.751Z,99787.66
2023-10-30T12:28:02.586Z,99774.41
2023-10-30T12:30:39.505Z,99772.63
2023-10-30T12:33:06.909Z,99773.56
2023-10-30T12:35:35.899Z,99768.25
2023-10-30T12:38:16.133Z,99768.25
2023-10-30T12:40:44.958Z,99757.63
2023-10-30T12:43:12.057Z,99753.22
2023-10-30T12:45:40.594Z,99748.84
2023-10-30T12:48:07.807Z,99744.44
2023-10-30T12:50:36.768Z,99742.63
2023-10-30T12:53:03.840Z,99737.34
2023-10-30T12:55:30.877Z,99734.69
2023-10-30T12:57:57.890Z,99734.69
2023-10-30T13:00:26.200Z,99733.81
2023-10-30T13:02:53.317Z,99725.84
2023-10-30T13:05:20.551Z,99724.97
2023-10-30T13:07:47.533Z,99719.66
2023-10-30T13:10:14.846Z,99715.22
2023-10-30T13:12:41.916Z,99711.72
2023-10-30T13:15:09.435Z,99709.06
2023-10-30T13:17:36.445Z,99709.97
2023-10-30T13:20:07.600Z,99704.63
2023-10-30T13:22:34.691Z,99698.47
2023-10-30T13:25:01.651Z,99700.22
2023-10-30T13:27:28.756Z,99698.47
2023-10-30T13:29:55.699Z,99696.69
2023-10-30T13:32:22.677Z,99685.22
2023-10-30T13:34:49.841Z,99683.47
2023-10-30T13:37:16.881Z,99689.63
2023-10-30T13:39:43.955Z,99687.84
2023-10-30T13:42:10.936Z,99674.59
2023-10-30T13:44:37.839Z,99677.28
2023-10-30T13:47:04.954Z,99671.09
2023-10-30T13:49:32.606Z,99672.88
2023-10-30T13:51:59.865Z,99671.09
2023-10-30T13:54:26.906Z,99665.81
2023-10-30T13:56:54.208Z,99667.59
2023-10-30T13:59:21.555Z,99658.75
2023-10-30T14:01:48.545Z,99673.75
2023-10-30T14:04:18.344Z,99666.66
2023-10-30T14:06:45.800Z,99660.50
2023-10-30T14:09:13.768Z,99661.38
2023-10-30T14:11:41.619Z,99663.16
2023-10-30T14:14:08.548Z,99655.19
2023-10-30T14:16:36.652Z,99652.56
2023-10-30T14:19:04.725Z,99646.38
2023-10-30T14:21:35.155Z,99649.88
2023-10-30T14:24:02.123Z,99643.75
2023-10-30T14:26:30.414Z,99643.72
2023-10-30T14:28:57.332Z,99638.44
2023-10-30T14:31:24.370Z,99636.63
2023-10-30T14:33:51.787Z,99626.94
2023-10-30T14:36:18.722Z,99625.16
2023-10-30T14:38:45.718Z,99626.03
2023-10-30T14:41:12.918Z,99626.03
2023-10-30T14:43:39.897Z,99618.97
2023-10-30T14:46:07.040Z,99622.50
2023-10-30T14:48:34.335Z,99607.50
2023-10-30T14:51:01.985Z,99605.72
2023-10-30T14:53:28.968Z,99602.22
2023-10-30T14:55:56.085Z,99600.44
2023-10-30T14:58:23.101Z,99589.88
2023-10-30T15:00:50.234Z,99581.94
2023-10-30T15:03:17.178Z,99580.13
2023-10-30T15:05:44.872Z,99577.50
2023-10-30T15:08:11.922Z,99573.97
2023-10-30T15:10:39.064Z,99567.78
2023-10-30T15:13:06.124Z,99564.28
2023-10-30T15:15:33.219Z,99568.66
2023-10-30T15:18:00.232Z,99566.00
2023-10-30T15:20:27.222Z,99561.63
2023-10-30T15:22:54.179Z,99565.16
2023-10-30T15:25:22.476Z,99573.09
2023-10-30T15:27:49.649Z,99560.75
2023-10-30T15:30:16.684Z,99562.50
2023-10-30T15:32:43.689Z,99560.72
2023-10-30T15:35:12.916Z,99551.91
2023-10-30T15:37:40.924Z,99543.13
2023-10-30T15:40:09.343Z,99543.13
2023-10-30T15:42:36.309Z,99537.84
2023-10-30T15:45:04.057Z,99542.31
2023-10-30T15:47:33.839Z,99544.03
2023-10-30T15:50:03.033Z,99539.66
2023-10-30T15:57:33.976Z,99537.84
2023-10-30T16:00:08.207Z,99543.16
2023-10-30T16:02:36.899Z,99547.88
2023-10-30T16:05:07.827Z,99558.69
2023-10-30T16:07:36.562Z,99571.88
2023-10-30T16:12:54.014Z,99562.22
2023-10-30T16:15:22.136Z,99556.16
2023-10-30T16:18:20.923Z,99558.81
2023-10-30T16:23:25.453Z,99546.56
2023-10-30T16:26:03.109Z,99539.53
2023-10-30T16:28:30.057Z,99536.94
2023-10-30T16:30:58.088Z,99532.59
2023-10-30T16:33:25.032Z,99525.56
2023-10-30T16:35:55.984Z,99537.00
2023-10-30T16:38:22.922Z,99526.47
2023-10-30T16:40:49.945Z,99535.25
2023-10-30T16:43:16.842Z,99530.88
2023-10-30T16:45:44.344Z,99540.56
2023-10-30T16:48:13.177Z,99533.53
2023-10-30T16:50:40.213Z,99536.19
2023-10-30T16:53:07.251Z,99542.31
2023-10-30T16:55:34.265Z,99543.19
2023-10-30T16:58:01.725Z,99555.50
2023-10-30T17:00:28.933Z,99547.59
2023-10-30T17:02:56.151Z,99551.13
2023-10-30T17:05:23.281Z,99554.63
2023-10-30T17:07:50.326Z,99558.16
2023-10-30T17:10:17.325Z,99550.25
2023-10-30T17:12:44.247Z,99550.25
2023-10-30T17:15:11.404Z,99558.16
2023-10-30T17:17:38.446Z,99558.16
2023-10-30T17:20:05.912Z,99553.78
2023-10-30T17:22:33.077Z,99554.69
2023-10-30T17:25:01.847Z,99552.91
2023-10-30T17:27:28.981Z,99555.53
2023-10-30T17:29:55.944Z,99547.66
2023-10-30T17:32:22.909Z,99546.78
2023-10-30T17:34:50.657Z,99546.78
2023-10-30T17:37:20.075Z,99540.66
2023-10-30T17:39:47.341Z,99538.00
2023-10-30T17:42:14.472Z,99544.16
2023-10-30T17:44:41.422Z,99538.03
2023-10-30T17:47:08.533Z,99534.50
2023-10-30T17:49:37.048Z,99523.09
2023-10-30T17:52:04.674Z,99523.97
2023-10-30T17:54:34.859Z,99526.59
2023-10-30T17:57:04.118Z,99528.34
2023-10-30T17:59:31.230Z,99530.06
2023-10-30T18:01:58.642Z,99527.41
2023-10-30T18:04:25.772Z,99542.34
2023-10-30T18:06:52.822Z,99539.69
2023-10-30T18:09:20.815Z,99530.94
2023-10-30T18:11:49.149Z,99525.72
2023-10-30T18:14:16.327Z,99521.34
2023-10-30T18:16:43.893Z,99514.31
2023-10-30T18:19:11.114Z,99512.59
2023-10-30T18:21:38.084Z,99524.00
2023-10-30T18:24:05.237Z,99523.13
2023-10-30T18:26:32.281Z,99515.25
2023-10-30T18:29:06.986Z,99512.59
2023-10-30T18:31:40.235Z,99506.44
2023-10-30T18:34:07.914Z,99505.56
2023-10-30T18:36:34.884Z,99505.59
2023-10-30T18:39:02.047Z,99511.72
2023-10-30T18:41:29.077Z,99499.44
2023-10-30T18:43:56.155Z,99510.84
2023-10-30T18:46:24.805Z,99509.97
2023-10-30T18:48:51.810Z,99501.19
2023-10-30T18:51:18.769Z,99502.94
2023-10-30T18:53:45.695Z,99500.31
2023-10-30T18:56:13.150Z,99497.69
2023-10-30T18:58:40.269Z,99492.41
2023-10-30T19:01:08.036Z,99492.44
2023-10-30T19:03:35.358Z,99485.41
2023-10-30T19:06:04.414Z,99482.75
2023-10-30T19:08:35.163Z,99482.78
2023-10-30T19:11:02.680Z,99478.38
2023-10-30T19:13:33.234Z,99482.75
2023-10-30T19:16:01.060Z,99484.50
2023-10-30T19:18:28.650Z,99475.72
2023-10-30T19:20:56.895Z,99484.47
2023-10-30T19:23:23.999Z,99481.84
2023-10-30T19:25:50.993Z,99485.34
2023-10-30T19:28:18.072Z,99483.63
2023-10-30T19:30:45.050Z,99485.34
2023-10-30T19:33:12.026Z,99486.22
2023-10-30T19:35:39.205Z,99483.56
2023-10-30T19:38:07.979Z,99490.59
2023-10-30T19:40:36.687Z,99480.94
2023-10-30T19:43:04.441Z,99491.47
2023-10-30T19:45:32.176Z,99478.31
2023-10-30T19:47:59.388Z,99482.69
2023-10-30T19:50:26.387Z,99485.31
2023-10-30T19:52:53.494Z,99482.66
2023-10-30T19:55:20.561Z,99473.03
2023-10-30T19:57:50.754Z,99480.94
2023-10-30T20:00:18.954Z,99494.06
2023-10-30T20:02:46.085Z,99492.31
2023-10-30T20:05:13.308Z,99494.06
2023-10-30T20:07:43.825Z,99508.94
2023-10-30T20:10:27.701Z,99502.81
2023-10-30T20:12:58.113Z,99506.44
2023-10-30T20:15:25.093Z,99510.06
2023-10-30T20:17:52.345Z,99512.88
2023-10-30T20:20:19.424Z,99524.41
2023-10-30T20:22:46.401Z,99529.69
2023-10-30T20:25:15.064Z,99534.13
2023-10-30T20:27:43.218Z,99545.53
2023-10-30T20:30:11.063Z,99529.75
2023-10-30T20:32:38.337Z,99533.34
2023-10-30T20:35:05.798Z,99536.03
2023-10-30T20:37:32.742Z,99537.75
2023-10-30T20:39:59.749Z,99546.56
2023-10-30T20:42:27.046Z,99557.16
2023-10-30T20:44:54.071Z,99560.63
2023-10-30T20:47:21.004Z,99558.00
2023-10-30T20:49:48.249Z,99565.00
2023-10-30T20:52:15.367Z,99565.94
2023-10-30T20:54:42.521Z,99563.28
2023-10-30T20:57:09.528Z,99569.44
2023-10-30T20:59:36.545Z,99565.06
2023-10-30T21:02:03.653Z,99571.19
2023-10-30T21:04:30.953Z,99582.59
2023-10-30T21:06:57.955Z,99578.22
2023-10-30T21:09:25.222Z,99588.69
2023-10-30T21:11:52.235Z,99596.59
2023-10-30T21:14:20.704Z,99607.16
2023-10-30T21:16:49.922Z,99604.47
2023-10-30T21:19:16.968Z,99609.78
2023-10-30T21:21:43.943Z,99620.25
2023-10-30T21:24:11.021Z,99608.91
2023-10-30T21:26:37.986Z,99615.91
2023-10-30T21:29:05.203Z,99628.16
2023-10-30T21:31:32.690Z,99629.91
2023-10-30T21:33:59.657Z,99633.41
2023-10-30T21:36:26.653Z,99639.59
2023-10-30T21:38:55.165Z,99644.81
2023-10-30T21:41:22.151Z,99642.22
2023-10-30T21:43:50.962Z,99639.56
2023-10-30T21:46:18.585Z,99641.31
2023-10-30T21:48:45.880Z,99649.22
2023-10-30T21:51:12.885Z,99655.34
2023-10-30T21:53:39.862Z,99653.63
2023-10-30T21:56:07.246Z,99657.13
2023-10-30T21:58:34.297Z,99658.03
2023-10-30T22:01:01.295Z,99666.75
2023-10-30T22:03:28.798Z,99675.53
2023-10-30T22:05:55.799Z,99677.28
2023-10-30T22:08:22.722Z,99679.03
2023-10-30T22:10:49.757Z,99681.66
2023-10-30T22:13:16.723Z,99689.53
2023-10-30T22:15:46.344Z,99685.16
2023-10-30T22:18:13.488Z,99692.19
2023-10-30T22:20:40.951Z,99693.06
2023-10-30T22:23:07.958Z,99697.44
2023-10-30T22:25:34.964Z,99700.06
2023-10-30T22:28:01.942Z,99694.81
2023-10-30T22:30:28.937Z,99703.59
2023-10-30T22:32:55.928Z,99707.09
2023-10-30T22:35:22.897Z,99713.22
2023-10-30T22:37:49.845Z,99715.84
2023-10-30T22:40:17.046Z,99723.72
2023-10-30T22:42:44.063Z,99726.38
2023-10-30T22:45:11.430Z,99727.22
2023-10-30T22:47:38.450Z,99735.97
2023-10-30T22:50:06.284Z,99724.59
2023-10-30T22:52:33.902Z,99725.47
2023-10-30T22:55:01.102Z,99724.59
2023-10-30T22:57:28.790Z,99737.75
2023-10-30T22:59:55.734Z,99726.34
2023-10-30T23:02:22.736Z,99735.13
2023-10-30T23:04:49.986Z,99724.59
2023-10-30T23:07:17.316Z,99715.84
2023-10-30T23:09:44.257Z,99725.50
2023-10-30T23:12:11.264Z,99724.63
2023-10-30T23:14:38.553Z,99729.00
2023-10-30T23:17:05.627Z,99736.00
2023-10-30T23:19:35.278Z,99736.00
2023-10-30T23:22:02.419Z,99742.13
2023-10-30T23:24:29.357Z,99736.00
2023-10-30T23:26:56.314Z,99729.88
2023-10-30T23:29:23.487Z,99738.63
2023-10-30T23:31:50.422Z,99741.25
2023-10-30T23:34:17.346Z,99743.88
2023-10-30T23:36:44.344Z,99747.38
2023-10-30T23:39:11.271Z,99750.00
2023-10-30T23:41:38.288Z,99746.50
2023-10-30T23:44:05.991Z,99744.75
2023-10-30T23:46:39.086Z,99735.13
2023-10-30T23:49:08.548Z,99738.63
2023-10-30T23:51:35.521Z,99736.88
2023-10-30T23:54:02.430Z,99733.38
2023-10-30T23:56:29.425Z,99727.25
2023-10-30T23:58:56.379Z,99742.13
